Portada
METAR-TAF:

METAR-TAF

Aeropuertos :

Aeropuerto de Rodez-Aveyron

Rodez, Francia

latitud: 44-24N, longitud: 002-29E, altitud: 581 m

Observación

El informe se hizo hace 24 minutos, a las 14:00 UTC
Viento 7 kt del noroeste, variando entre oeste y norte-noroeste
Temperatura 9°C
Humedad 53%
Presión 1032 hPa
Visibilidad 10 km o más
sin nubes por debajo de 1500 m y sin presencia de cumulonimbus.

METAR: LFCR 031400Z AUTO 31007KT 280V340 CAVOK 09/M00 Q1032 NOSIG

Hora: 15:24 (14:24 UTC)

Pronóstico

El informe se hizo hace 3 horas y 24 minutos, a las 11:00 UTC
Pronóstico válido del 03 a las 12 UTC al 04 a las 12 UTC
Viento 5 kt del noroeste
Visibilidad 10 km o más
sin nubes por debajo de 1500 m y sin presencia de cumulonimbus.
Probabilidad 30% :
Temporalmente
del 04 a las 03 UTC al 04 a las 08 UTC
Visibilidad: 0500 m
niebla engelante

TAF: LFCR 031100Z 0312/0412 32005KT CAVOK PROB30 TEMPO 0403/0408 0500 FZFG

Observaciones y pronósticos meteorológicos de más de 4000 aeropuertos (mensajes METAR y TAF).

Los puntos amarillos y rojos representan las estaciones disponibles.

Ponga el ratón en el punto deseado para ver el nombre de la estación.

Haga clic para ver las observaciones y los pronósticos meteorológicos.

Para cambiar el mapa : haga clic en los botones verdes con una cruz de color negro para hacer un zoom, en el botón verde con un guión para alejar o en las flechas verdes para mapas adyacentes.


METAR-TAF: